TimeEDT,TemperatureF,Dew PointF,Humidity,Sea Level PressureIn,VisibilityMPH,Wind Direction,Wind SpeedMPH,Gust SpeedMPH,PrecipitationIn,Events,Conditions,WindDirDegrees,DateUTC
12:53 AM,75.0,72.0,90,30.01,10.0,Calm,Calm,-,N/A,,Clear,0,2012-10-09 04:53:00
1:53 AM,73.9,71.1,91,30.00,10.0,WNW,3.5,-,N/A,,Clear,300,2012-10-09 05:53:00
2:08 AM,73.4,71.6,94,30.00,10.0,Calm,Calm,-,N/A,,Partly Cloudy,0,2012-10-09 06:08:00
2:53 AM,73.0,71.1,93,29.99,10.0,Calm,Calm,-,N/A,,Clear,0,2012-10-09 06:53:00
4:53 AM,72.0,70.0,93,29.98,10.0,Calm,Calm,-,N/A,,Partly Cloudy,0,2012-10-09 08:53:00
5:50 AM,73.4,71.6,94,30.00,10.0,NNW,6.9,-,N/A,,Mostly Cloudy,340,2012-10-09 09:50:00
5:53 AM,73.0,71.1,93,30.00,10.0,North,6.9,-,N/A,,Mostly Cloudy,350,2012-10-09 09:53:00
6:27 AM,73.4,71.6,94,30.00,10.0,NNW,6.9,-,N/A,,Overcast,340,2012-10-09 10:27:00
6:53 AM,73.0,71.1,93,30.01,8.0,North,8.1,-,N/A,,Overcast,350,2012-10-09 10:53:00
7:53 AM,73.9,71.1,91,30.02,10.0,North,8.1,-,N/A,,Overcast,350,2012-10-09 11:53:00
8:18 AM,75.2,71.6,89,30.02,10.0,North,8.1,-,N/A,,Scattered Clouds,360,2012-10-09 12:18:00
8:53 AM,75.9,72.0,87,30.03,10.0,North,6.9,-,N/A,,Scattered Clouds,350,2012-10-09 12:53:00
9:53 AM,78.1,72.0,81,30.04,10.0,North,6.9,-,N/A,,Mostly Cloudy,350,2012-10-09 13:53:00
10:53 AM,79.0,71.1,77,30.06,10.0,North,10.4,-,N/A,,Mostly Cloudy,350,2012-10-09 14:53:00
11:39 AM,80.6,71.6,74,30.05,10.0,NNW,9.2,-,N/A,,Scattered Clouds,340,2012-10-09 15:39:00
11:53 AM,81.0,72.0,74,30.05,10.0,NNW,8.1,-,N/A,,Scattered Clouds,340,2012-10-09 15:53:00
12:53 PM,84.0,72.0,67,30.04,10.0,North,9.2,-,N/A,,Mostly Cloudy,360,2012-10-09 16:53:00
1:31 PM,82.4,69.8,66,30.04,10.0,NNE,11.5,-,N/A,,Overcast,20,2012-10-09 17:31:00
1:44 PM,82.4,69.8,66,30.03,10.0,NE,10.4,-,N/A,,Mostly Cloudy,40,2012-10-09 17:44:00
1:53 PM,82.9,70.0,65,30.03,10.0,NNE,11.5,-,N/A,,Mostly Cloudy,30,2012-10-09 17:53:00
2:06 PM,82.4,69.8,66,30.03,10.0,North,11.5,-,N/A,,Mostly Cloudy,360,2012-10-09 18:06:00
2:53 PM,82.0,69.1,65,30.01,10.0,NNE,9.2,-,N/A,,Mostly Cloudy,30,2012-10-09 18:53:00
3:26 PM,82.4,69.8,66,30.01,10.0,NNE,12.7,-,N/A,,Mostly Cloudy,20,2012-10-09 19:26:00
3:36 PM,82.4,69.8,66,30.01,10.0,NE,8.1,-,N/A,,Mostly Cloudy,50,2012-10-09 19:36:00
3:53 PM,82.9,69.1,63,30.01,10.0,NE,9.2,-,N/A,,Scattered Clouds,40,2012-10-09 19:53:00
4:53 PM,80.1,69.1,69,30.01,10.0,NNE,12.7,-,N/A,,Scattered Clouds,30,2012-10-09 20:53:00
5:53 PM,78.1,68.0,71,30.02,10.0,NE,11.5,-,N/A,,Scattered Clouds,40,2012-10-09 21:53:00
6:53 PM,75.9,66.9,74,30.03,10.0,NE,9.2,-,N/A,,Scattered Clouds,50,2012-10-09 22:53:00
7:17 PM,75.2,68.0,78,30.04,10.0,NNE,6.9,-,N/A,,Mostly Cloudy,30,2012-10-09 23:17:00
7:46 PM,73.4,66.2,78,30.04,10.0,NNE,8.1,-,N/A,,Partly Cloudy,30,2012-10-09 23:46:00
7:53 PM,73.9,66.9,79,30.04,10.0,NE,6.9,-,N/A,,Scattered Clouds,40,2012-10-09 23:53:00
8:53 PM,73.0,66.9,81,30.05,10.0,NNE,4.6,-,N/A,,Clear,30,2012-10-10 00:53:00
9:53 PM,72.0,66.9,84,30.07,10.0,NNE,3.5,-,N/A,,Clear,20,2012-10-10 01:53:00
10:53 PM,71.1,66.0,84,30.08,10.0,NNE,4.6,-,N/A,,Clear,20,2012-10-10 02:53:00
11:53 PM,71.1,66.0,84,30.08,10.0,North,5.8,-,N/A,,Clear,10,2012-10-10 03:53:00